Time;durP1;ratioP1;P1;durP2;ratioP2;P2;SDS_P1;SDS_P2;PMS_P1;PMS_P2;Temp;Humidity;BMP_temperature;BMP_pressure;BME280_temperature;BME280_humidity;BME280_pressure;Samples;Min_cycle;Max_cycle;Signal;HPM_P1;HPM_P2
2022/12/29 00:01:25;;;;;;;1999.90;999.90;;;;;;;4.44;100.00;95153.81;4996408;28;20180;-63
2022/12/29 00:03:50;;;;;;;1999.90;999.90;;;;;;;4.47;100.00;95153.84;4995837;28;20270;-66
2022/12/29 00:06:16;;;;;;;1999.90;999.90;;;;;;;4.55;100.00;95149.31;4995671;28;20290;-67
2022/12/29 00:08:41;;;;;;;1999.90;999.90;;;;;;;4.58;100.00;95143.94;4995788;28;20172;-67
2022/12/29 00:11:16;;;;;;;1999.90;999.90;;;;;;;4.62;100.00;95144.72;4995780;28;20309;-67
2022/12/29 00:16:27;;;;;;;1999.90;999.90;;;;;;;4.74;100.00;95135.59;4997452;28;20160;-67
2022/12/29 00:18:52;;;;;;;1999.90;999.90;;;;;;;4.79;100.00;95137.94;4995597;28;20187;-67
2022/12/29 00:35:11;;;;;;;1999.90;999.90;;;;;;;4.65;100.00;95135.09;4997013;28;20234;-62
2022/12/29 00:45:52;;;;;;;1999.90;999.90;;;;;;;4.51;100.00;95126.88;4996632;28;20559;-69
2022/12/29 00:49:30;;;;;;;1999.90;999.90;;;;;;;4.52;100.00;95126.47;4995446;28;20243;-69
2022/12/29 00:51:06;;;;;;;1999.90;999.90;;;;;;;4.48;100.00;95124.91;4996244;28;20174;-69
2022/12/29 00:53:32;;;;;;;1999.90;999.90;;;;;;;4.42;100.00;95123.66;5011077;28;20207;-68
2022/12/29 00:55:57;;;;;;;1999.90;999.90;;;;;;;4.37;100.00;95129.41;4995200;28;20600;-69
2022/12/29 00:58:23;;;;;;;1999.90;999.90;;;;;;;4.32;100.00;95125.13;4995552;28;20183;-74
2022/12/29 01:00:48;;;;;;;1999.90;999.90;;;;;;;4.31;100.00;95133.59;4995805;28;20617;-66
2022/12/29 01:03:13;;;;;;;1999.90;999.90;;;;;;;4.27;100.00;95127.38;4994959;28;20176;-67
2022/12/29 01:05:38;;;;;;;1999.90;999.90;;;;;;;4.22;100.00;95130.41;4995070;28;20266;-67
2022/12/29 01:08:04;;;;;;;1999.90;999.90;;;;;;;4.18;100.00;95132.28;4994887;28;20267;-68
2022/12/29 01:10:30;;;;;;;1999.90;999.90;;;;;;;4.18;100.00;95135.75;4994827;28;20188;-68
2022/12/29 01:12:55;;;;;;;1999.90;999.90;;;;;;;4.21;100.00;95135.03;4994671;28;20180;-67
2022/12/29 01:15:21;;;;;;;1999.90;999.90;;;;;;;4.19;100.00;95134.59;4995080;28;20545;-68
2022/12/29 01:17:46;;;;;;;1999.90;999.90;;;;;;;4.20;100.00;95138.09;4994806;28;20521;-67
2022/12/29 01:20:12;;;;;;;1999.90;999.90;;;;;;;4.15;100.00;95135.72;4993998;28;20180;-70
2022/12/29 01:22:38;;;;;;;1999.90;999.90;;;;;;;4.18;100.00;95137.69;4995349;28;20211;-70
2022/12/29 01:25:05;;;;;;;1999.90;999.90;;;;;;;4.22;100.00;95146.63;4994648;28;20191;-71
2022/12/29 01:27:30;;;;;;;1999.90;999.90;;;;;;;4.22;100.00;95136.56;4994210;28;20220;-71
2022/12/29 01:29:55;;;;;;;1999.90;999.90;;;;;;;4.23;100.00;95142.75;5010867;28;20186;-72
2022/12/29 01:32:21;;;;;;;1999.90;999.90;;;;;;;4.18;100.00;95143.09;4994928;28;20183;-73
2022/12/29 01:34:46;;;;;;;1999.90;999.90;;;;;;;4.13;100.00;95146.13;5011563;28;20231;-60
2022/12/29 01:37:12;;;;;;;1999.90;999.90;;;;;;;4.09;100.00;95148.00;4994452;28;20180;-63
2022/12/29 01:39:37;;;;;;;1999.90;999.90;;;;;;;4.09;100.00;95156.09;4994394;28;20224;-63
2022/12/29 01:42:02;;;;;;;1999.90;999.90;;;;;;;4.05;100.00;95150.66;4994637;28;20643;-64
2022/12/29 01:44:50;;;;;;;1999.90;999.90;;;;;;;4.08;100.00;95146.44;4994551;28;20226;-63
2022/12/29 01:47:25;;;;;;;1999.90;999.90;;;;;;;4.08;100.00;95143.75;4994466;28;20247;-63
2022/12/29 01:49:54;;;;;;;1999.90;999.90;;;;;;;4.10;100.00;95146.84;4994969;28;20171;-65
2022/12/29 01:52:19;;;;;;;1999.90;999.90;;;;;;;4.09;100.00;95142.59;4994377;28;20225;-68
2022/12/29 01:54:50;;;;;;;1999.90;999.90;;;;;;;4.13;100.00;95143.41;4994929;28;20176;-64
2022/12/29 01:57:33;;;;;;;1999.90;999.90;;;;;;;4.16;100.00;95148.88;4994034;28;20171;-66
2022/12/29 02:00:06;;;;;;;1999.90;999.90;;;;;;;4.17;100.00;95149.63;4994784;28;20242;-65
2022/12/29 02:02:32;;;;;;;1999.90;999.90;;;;;;;4.17;100.00;95138.81;4994798;28;20175;-67
2022/12/29 02:05:02;;;;;;;1999.90;999.90;;;;;;;4.14;100.00;95142.25;5010884;28;20538;-68
2022/12/29 02:07:28;;;;;;;1999.90;999.90;;;;;;;4.10;100.00;95138.75;4994106;28;20199;-66
2022/12/29 02:09:55;;;;;;;1999.90;999.90;;;;;;;4.06;100.00;95127.91;4994045;28;20183;-67
2022/12/29 02:12:22;;;;;;;1999.90;999.90;;;;;;;4.09;100.00;95126.38;5010488;28;20184;-72
2022/12/29 02:14:53;;;;;;;1999.90;999.90;;;;;;;4.12;100.00;95125.66;4994282;28;20648;-56
2022/12/29 02:17:21;;;;;;;1999.90;999.90;;;;;;;4.15;100.00;95130.31;4994680;28;20267;-57
2022/12/29 02:20:27;;;;;;;1999.90;999.90;;;;;;;4.18;100.00;95122.25;4994148;28;20629;-56
2022/12/29 02:23:14;;;;;;;1999.90;999.90;;;;;;;4.21;100.00;95120.72;4994588;28;20278;-58
2022/12/29 02:26:07;;;;;;;1999.90;999.90;;;;;;;4.27;100.00;95132.78;4994113;28;20207;-58
2022/12/29 02:28:57;;;;;;;1999.90;999.90;;;;;;;4.27;100.00;95130.06;4994159;28;20168;-71
2022/12/29 02:31:41;;;;;;;1999.90;999.90;;;;;;;4.31;100.00;95133.59;4995845;28;20184;-63
2022/12/29 02:34:25;;;;;;;1999.90;999.90;;;;;;;4.41;100.00;95136.41;4998101;28;20223;-59
2022/12/29 02:37:27;;;;;;;1999.90;999.90;;;;;;;4.47;100.00;95126.03;4997841;28;20205;-60
2022/12/29 02:39:58;;;;;;;1999.90;999.90;;;;;;;4.50;100.00;95122.59;4998439;28;20180;-59
2022/12/29 02:42:26;;;;;;;1999.90;999.90;;;;;;;4.57;100.00;95133.47;4998427;28;20176;-60
2022/12/29 02:45:10;;;;;;;1999.90;999.90;;;;;;;4.64;100.00;95128.16;4997798;28;20180;-58
2022/12/29 02:47:52;;;;;;;1999.90;999.90;;;;;;;4.76;100.00;95125.16;4997591;28;20664;-68
2022/12/29 02:50:27;;;;;;;1999.90;999.90;;;;;;;4.83;100.00;95119.81;4998113;28;20177;-58
2022/12/29 02:53:01;;;;;;;1999.90;999.90;;;;;;;4.92;100.00;95120.31;4997269;28;20298;-58
2022/12/29 02:55:26;;;;;;;1999.90;999.90;;;;;;;4.94;100.00;95123.41;4998123;28;20262;-59
2022/12/29 02:58:16;;;;;;;1999.90;999.90;;;;;;;5.00;100.00;95119.22;4997438;28;20611;-57
2022/12/29 03:00:49;;;;;;;1999.90;999.90;;;;;;;5.02;100.00;95114.97;4997792;28;20184;-58
2022/12/29 03:03:22;;;;;;;1999.90;999.90;;;;;;;5.00;100.00;95109.16;4997158;28;20168;-57
2022/12/29 03:06:21;;;;;;;1999.90;999.90;;;;;;;5.13;100.00;95115.06;4997503;28;20204;-58
2022/12/29 03:08:59;;;;;;;1999.90;999.90;;;;;;;5.21;100.00;95105.84;4997860;28;20176;-73
2022/12/29 03:17:56;;;;;;;1999.90;999.90;;;;;;;5.44;100.00;95096.34;4998427;28;20173;-69
2022/12/29 03:20:27;;;;;;;1999.90;999.90;;;;;;;5.49;100.00;95095.19;4997168;28;20307;-75
2022/12/29 03:23:00;;;;;;;1999.90;999.90;;;;;;;5.62;100.00;95089.09;4996644;28;20215;-70
2022/12/29 03:25:30;;;;;;;1999.90;999.90;;;;;;;5.75;100.00;95087.59;4997418;28;20200;-71
2022/12/29 03:28:00;;;;;;;1999.90;999.90;;;;;;;5.74;100.00;95086.06;4997454;28;20177;-68
2022/12/29 03:30:29;;;;;;;1999.90;999.90;;;;;;;5.81;100.00;95079.94;4997538;28;20607;-68
2022/12/29 03:32:59;;;;;;;1999.90;999.90;;;;;;;5.87;100.00;95083.84;5016161;28;20232;-67
2022/12/29 03:35:29;;;;;;;1999.90;999.90;;;;;;;5.91;100.00;95079.19;5000027;28;20183;-67
2022/12/29 03:38:18;;;;;;;1999.90;999.90;;;;;;;5.99;100.00;95086.19;5000208;28;20183;-68
2022/12/29 03:40:48;;;;;;;1999.90;999.90;;;;;;;6.02;100.00;95085.44;5000679;28;20178;-67
2022/12/29 03:43:14;;;;;;;1999.90;999.90;;;;;;;6.04;100.00;95093.94;4999060;28;20181;-61
2022/12/29 03:45:40;;;;;;;1999.90;999.90;;;;;;;6.06;100.00;95086.22;4999776;28;20308;-59
2022/12/29 03:48:05;;;;;;;1999.90;999.90;;;;;;;6.06;100.00;95088.94;4999495;28;20174;-58
2022/12/29 03:50:31;;;;;;;1999.90;999.90;;;;;;;6.09;100.00;95086.22;5000440;28;20227;-58
2022/12/29 03:52:56;;;;;;;1999.90;999.90;;;;;;;6.10;100.00;95087.81;4999737;28;20180;-59
2022/12/29 03:55:22;;;;;;;1999.90;999.90;;;;;;;6.17;100.00;95087.03;4999575;28;20610;-59
2022/12/29 03:57:47;;;;;;;1999.90;999.90;;;;;;;6.23;100.00;95085.53;5016004;28;20182;-59
2022/12/29 04:00:13;;;;;;;1999.90;999.90;;;;;;;6.29;100.00;95082.06;4999573;28;20213;-60
2022/12/29 04:02:39;;;;;;;1999.90;999.90;;;;;;;6.31;100.00;95081.66;4999444;28;20209;-66
2022/12/29 04:05:04;;;;;;;1999.90;999.90;;;;;;;6.38;100.00;95077.03;4999502;28;20284;-60
2022/12/29 04:07:30;;;;;;;1999.90;999.90;;;;;;;6.40;100.00;95079.34;4999397;28;20234;-59
2022/12/29 04:09:55;;;;;;;1999.90;999.90;;;;;;;6.47;100.00;95073.94;4999438;28;20217;-59
2022/12/29 04:12:21;;;;;;;1999.90;999.90;;;;;;;6.51;100.00;95078.22;4999870;28;20186;-59
2022/12/29 04:14:46;;;;;;;1999.90;999.90;;;;;;;6.59;100.00;95068.16;4999373;28;20631;-58
2022/12/29 04:17:11;;;;;;;1999.90;999.90;;;;;;;6.61;100.00;95068.56;4999556;28;20269;-59
2022/12/29 04:19:37;;;;;;;1999.90;999.90;;;;;;;6.61;100.00;95071.28;5000009;28;20180;-59
2022/12/29 04:22:02;;;;;;;1999.90;999.90;;;;;;;6.64;100.00;95071.25;4999299;28;20189;-62
2022/12/29 04:24:27;;;;;;;1999.90;999.90;;;;;;;6.68;100.00;95080.22;4998865;28;20637;-63
2022/12/29 04:26:52;;;;;;;1999.90;999.90;;;;;;;6.68;100.00;95074.78;4999540;28;20205;-63
2022/12/29 04:29:18;;;;;;;1999.90;999.90;;;;;;;6.70;100.00;95083.28;4999532;28;20182;-63
2022/12/29 04:31:43;;;;;;;1999.90;999.90;;;;;;;6.69;100.00;95075.53;4998828;28;20182;-64
2022/12/29 04:34:08;;;;;;;1999.90;999.90;;;;;;;6.70;100.00;95077.09;5015111;28;20236;-63
2022/12/29 04:36:34;;;;;;;1999.90;999.90;;;;;;;6.70;100.00;95071.66;4998748;28;20177;-63
2022/12/29 04:38:59;;;;;;;1999.90;999.90;;;;;;;6.74;100.00;95080.59;4998689;28;20314;-65
2022/12/29 04:41:25;;;;;;;1999.90;999.90;;;;;;;6.74;100.00;95075.19;4998674;28;20217;-60
2022/12/29 04:43:51;;;;;;;1999.90;999.90;;;;;;;6.85;100.00;95073.25;4998761;28;20179;-59
2022/12/29 04:46:16;;;;;;;1999.90;999.90;;;;;;;6.81;100.00;95075.16;4998547;28;20218;-60
2022/12/29 04:48:42;;;;;;;1999.90;999.90;;;;;;;6.85;100.00;95073.25;4998930;28;20255;-60
2022/12/29 04:51:07;;;;;;;1999.90;999.90;;;;;;;6.89;100.00;95065.88;4998523;28;20169;-61
2022/12/29 04:53:32;;;;;;;1999.90;999.90;;;;;;;6.86;100.00;95058.50;4998422;28;20178;-61
2022/12/29 04:55:57;;;;;;;1999.90;999.90;;;;;;;6.87;100.00;95062.75;4997741;28;20190;-56
2022/12/29 04:58:23;;;;;;;1999.90;999.90;;;;;;;6.88;100.00;95048.81;4999112;28;20176;-66
2022/12/29 05:00:49;;;;;;;1999.90;999.90;;;;;;;6.93;100.00;95053.84;4998394;28;20188;-59
2022/12/29 05:03:14;;;;;;;1999.90;999.90;;;;;;;6.96;100.00;95060.47;4998439;28;20640;-60
2022/12/29 05:05:40;;;;;;;1999.90;999.90;;;;;;;6.96;100.00;95063.16;4998215;28;20296;-59
2022/12/29 05:08:06;;;;;;;1999.90;999.90;;;;;;;7.03;100.00;95057.72;4998375;28;20208;-61
2022/12/29 05:10:31;;;;;;;1999.90;999.90;;;;;;;7.06;100.00;95062.38;5014867;28;20182;-59
2022/12/29 05:12:58;;;;;;;1999.90;999.90;;;;;;;6.99;100.00;95072.47;4998861;28;20174;-59
2022/12/29 05:15:23;;;;;;;1999.90;999.90;;;;;;;7.03;100.00;95063.13;4998061;28;20213;-73
2022/12/29 05:17:48;;;;;;;1999.90;999.90;;;;;;;7.03;100.00;95057.72;4998796;28;20185;-58
2022/12/29 05:20:14;;;;;;;1999.90;999.90;;;;;;;7.05;100.00;95060.81;4997763;28;20176;-58
2022/12/29 05:22:39;;;;;;;1999.90;999.90;;;;;;;7.04;100.00;95069.34;4997931;28;20206;-59
2022/12/29 05:25:05;;;;;;;1999.90;999.90;;;;;;;7.04;100.00;95072.06;4997958;28;20185;-59
2022/12/29 05:27:30;;;;;;;1999.90;999.90;;;;;;;7.01;100.00;95076.34;4997589;28;20209;-57
2022/12/29 05:29:55;;;;;;;1999.90;999.90;;;;;;;7.01;100.00;95072.84;4997875;28;20174;-58
2022/12/29 05:32:21;;;;;;;1999.90;999.90;;;;;;;7.00;100.00;95082.16;5014164;28;20177;-57
2022/12/29 05:34:46;;;;;;;1999.90;999.90;;;;;;;7.00;100.00;95071.31;5014028;28;20235;-67
2022/12/29 05:37:11;;;;;;;1999.90;999.90;;;;;;;6.98;100.00;95079.81;4998226;28;20186;-61
2022/12/29 05:39:37;;;;;;;1999.90;999.90;;;;;;;6.96;100.00;95067.81;4997591;28;20264;-61
2022/12/29 05:42:02;;;;;;;1999.90;999.90;;;;;;;6.98;100.00;95060.81;4997628;28;20246;-61
2022/12/29 05:44:28;;;;;;;1999.90;999.90;;;;;;;6.97;100.00;95065.47;4998043;28;20207;-61
2022/12/29 05:46:53;;;;;;;1999.90;999.90;;;;;;;7.00;100.00;95069.38;4997826;28;20232;-61
2022/12/29 05:49:18;;;;;;;1999.90;999.90;;;;;;;7.00;100.00;95074.81;4997698;28;20189;-61
2022/12/29 05:51:44;;;;;;;1999.90;999.90;;;;;;;6.97;100.00;95062.75;4997328;28;20256;-62
2022/12/29 05:54:09;;;;;;;1999.90;999.90;;;;;;;7.00;100.00;95068.59;5013949;28;20227;-61
2022/12/29 05:56:34;;;;;;;1999.90;999.90;;;;;;;7.00;100.00;95063.94;4997527;28;20180;-61
2022/12/29 05:59:00;;;;;;;1999.90;999.90;;;;;;;6.98;100.00;95060.81;4997353;28;20216;-61
2022/12/29 06:01:28;;;;;;;1999.90;999.90;;;;;;;6.95;100.00;95060.84;4997454;28;20181;-61
2022/12/29 06:03:54;;;;;;;1999.90;999.90;;;;;;;6.94;100.00;95070.91;4997394;28;20205;-61
2022/12/29 06:06:19;;;;;;;1999.90;999.90;;;;;;;6.93;100.00;95068.59;4996977;28;20199;-60
2022/12/29 06:08:44;;;;;;;1999.90;999.90;;;;;;;6.91;100.00;95068.97;4997756;28;20190;-60
2022/12/29 06:11:10;;;;;;;1999.90;999.90;;;;;;;6.90;100.00;95070.13;4997750;28;20276;-63
2022/12/29 06:13:35;;;;;;;1999.90;999.90;;;;;;;6.86;100.00;95075.53;4997310;28;20648;-67
2022/12/29 06:16:01;;;;;;;1999.90;999.90;;;;;;;6.85;100.00;95062.38;4997847;28;20185;-66
2022/12/29 06:18:27;;;;;;;1999.90;999.90;;;;;;;6.81;100.00;95072.44;4997149;28;20613;-65
2022/12/29 06:20:52;;;;;;;1999.90;999.90;;;;;;;6.82;100.00;95068.59;4996881;28;20182;-67
2022/12/29 06:23:18;;;;;;;1999.90;999.90;;;;;;;6.81;100.00;95067.00;4998010;28;20180;-67
2022/12/29 06:25:44;;;;;;;1999.90;999.90;;;;;;;6.80;100.00;95066.25;4997696;28;20254;-66
2022/12/29 06:28:10;;;;;;;1999.90;999.90;;;;;;;6.79;100.00;95069.34;5013306;28;20188;-71
2022/12/29 06:30:35;;;;;;;1999.90;999.90;;;;;;;6.77;100.00;95067.03;4997195;28;20174;-64
2022/12/29 06:33:01;;;;;;;1999.90;999.90;;;;;;;6.76;100.00;95068.19;4993619;28;20228;-66
2022/12/29 06:35:26;;;;;;;1999.90;999.90;;;;;;;6.80;100.00;95077.09;4993879;28;20272;-65
2022/12/29 06:37:51;;;;;;;1999.90;999.90;;;;;;;6.80;100.00;95070.91;4993925;28;20265;-66
2022/12/29 06:40:17;;;;;;;1999.90;999.90;;;;;;;6.78;100.00;95070.53;4993857;28;20195;-66
2022/12/29 06:42:42;;;;;;;1999.90;999.90;;;;;;;6.74;100.00;95083.31;4994015;28;20192;-68
2022/12/29 06:45:08;;;;;;;1999.90;999.90;;;;;;;6.72;100.00;95077.47;4994337;28;20201;-69
2022/12/29 06:47:35;;;;;;;1999.90;999.90;;;;;;;6.72;100.00;95077.47;4994572;28;20238;-59
2022/12/29 06:50:01;;;;;;;1999.90;999.90;;;;;;;6.74;100.00;95080.59;5010084;28;20201;-75
2022/12/29 06:52:26;;;;;;;1999.90;999.90;;;;;;;6.74;100.00;95080.59;5010152;28;20175;-73
2022/12/29 06:54:51;;;;;;;1999.90;999.90;;;;;;;6.74;100.00;95072.47;4994205;28;20528;-72
2022/12/29 06:57:17;;;;;;;1999.90;999.90;;;;;;;6.75;100.00;95074.00;4994530;28;20201;-72
2022/12/29 06:59:42;;;;;;;1999.90;999.90;;;;;;;6.74;100.00;95086.03;5010550;28;20179;-72
2022/12/29 07:02:10;;;;;;;1999.90;999.90;;;;;;;6.81;100.00;95083.28;4994466;28;20186;-78
2022/12/29 07:04:35;;;;;;;1999.90;999.90;;;;;;;6.82;100.00;95091.06;5009903;28;20207;-72
2022/12/29 07:07:01;;;;;;;1999.90;999.90;;;;;;;6.84;100.00;95087.97;4993391;28;20229;-64
2022/12/29 07:09:26;;;;;;;1999.90;999.90;;;;;;;6.82;100.00;95082.16;4994522;28;20178;-64
2022/12/29 07:11:51;;;;;;;1999.90;999.90;;;;;;;7.03;100.00;95074.00;4993470;28;20175;-64
2022/12/29 07:14:17;;;;;;;1999.90;999.90;;;;;;;7.48;100.00;95086.00;4993541;28;20184;-65
2022/12/29 07:16:42;;;;;;;1999.90;999.90;;;;;;;7.65;100.00;95093.34;4994372;28;20175;-65
2022/12/29 07:19:08;;;;;;;1999.90;999.90;;;;;;;7.96;100.00;95098.69;4995956;28;20178;-64
2022/12/29 07:21:33;;;;;;;1999.90;999.90;;;;;;;8.01;100.00;95101.00;4997146;28;20178;-63
2022/12/29 07:23:59;;;;;;;1999.90;999.90;;;;;;;7.86;100.00;95098.75;4996926;28;20236;-64
2022/12/29 07:26:24;;;;;;;1999.90;999.90;;;;;;;7.76;100.00;95108.44;4996730;28;20198;-68
2022/12/29 07:28:49;;;;;;;1999.90;999.90;;;;;;;7.66;100.00;95111.97;4996853;28;20182;-66
2022/12/29 07:31:20;;;;;;;1999.90;999.90;;;;;;;7.62;100.00;95111.22;4996807;28;20210;-66
2022/12/29 07:33:46;;;;;;;1999.90;999.90;;;;;;;7.57;100.00;95111.59;4996855;28;20222;-67
2022/12/29 07:36:12;;;;;;;1999.90;999.90;;;;;;;7.57;100.00;95114.31;5013600;28;20274;-67
2022/12/29 07:38:38;;;;;;;1999.90;999.90;;;;;;;7.57;100.00;95114.31;4996838;28;20189;-70
2022/12/29 07:41:03;;;;;;;1999.90;999.90;;;;;;;7.59;100.00;95116.66;5013183;28;20178;-71
2022/12/29 07:43:29;;;;;;;1999.90;999.90;;;;;;;7.65;100.00;95112.38;4996380;28;20182;-60
2022/12/29 07:45:54;;;;;;;1999.90;999.90;;;;;;;7.72;100.00;95115.09;4996589;28;20206;-61
2022/12/29 07:48:20;;;;;;;1999.90;999.90;;;;;;;7.83;100.00;95119.31;4996426;28;20269;-62
2022/12/29 07:50:45;;;;;;;1999.90;999.90;;;;;;;7.81;100.00;95124.38;4996127;28;20194;-64
2022/12/29 07:53:10;;;;;;;1999.90;999.90;;;;;;;7.85;100.00;95116.19;4996892;28;20190;-62
2022/12/29 07:55:36;;;;;;;1999.90;999.90;;;;;;;7.98;100.00;95122.78;4996929;28;20214;-63
2022/12/29 07:58:01;;;;;;;1999.90;999.90;;;;;;;8.12;100.00;95112.63;4996467;28;20199;-63
2022/12/29 08:00:27;;;;;;;1999.90;999.90;;;;;;;9.37;100.00;95120.50;4996385;28;20180;-58
2022/12/29 08:02:52;;;;;;;1999.90;999.90;;;;;;;10.54;100.00;95115.38;4996832;28;20183;-73
2022/12/29 08:05:18;;;;;;;1999.90;999.90;;;;;;;11.45;100.00;95114.06;4996279;28;20287;-62
2022/12/29 08:07:44;;;;;;;1999.90;999.90;;;;;;;12.19;96.14;95124.50;4996432;28;20571;-60
2022/12/29 08:10:10;;;;;;;1999.90;999.90;;;;;;;12.74;86.91;95128.09;4995794;28;20174;-60
2022/12/29 08:12:37;;;;;;;1999.90;999.90;;;;;;;13.14;79.21;95112.38;4996184;28;20186;-60
2022/12/29 08:15:03;;;;;;;1999.90;999.90;;;;;;;13.44;72.77;95122.28;4996131;28;20190;-61
2022/12/29 08:17:29;;;;;;;1999.90;999.90;;;;;;;13.56;71.42;95122.38;4995990;28;20187;-60
2022/12/29 08:19:54;;;;;;;1999.90;999.90;;;;;;;13.77;67.53;95119.09;4996180;28;20176;-56
2022/12/29 08:22:19;;;;;;;1999.90;999.90;;;;;;;13.95;66.76;95119.41;4995486;28;20234;-71
2022/12/29 08:24:45;;;;;;;1999.90;999.90;;;;;;;14.06;66.76;95122.66;4995960;28;20228;-70
2022/12/29 08:27:10;;;;;;;1999.90;999.90;;;;;;;13.88;64.86;95125.09;4995576;28;20229;-69
2022/12/29 08:29:35;;;;;;;1999.90;999.90;;;;;;;13.77;64.53;95126.56;4995823;28;20259;-68
2022/12/29 08:32:01;;;;;;;1999.90;999.90;;;;;;;13.63;63.77;95122.22;4996183;28;20172;-68
2022/12/29 08:34:26;;;;;;;1999.90;999.90;;;;;;;13.52;64.46;95127.19;4995597;28;20227;-68
2022/12/29 08:36:51;;;;;;;1999.90;999.90;;;;;;;12.95;66.62;95135.09;4996399;28;20214;-66
2022/12/29 08:39:17;;;;;;;1999.90;999.90;;;;;;;12.89;68.46;95128.56;4995764;28;20183;-72
2022/12/29 08:41:42;;;;;;;1999.90;999.90;;;;;;;13.01;68.99;95130.69;5012139;28;20180;-67
2022/12/29 08:44:08;;;;;;;1999.90;999.90;;;;;;;13.36;66.17;95118.91;4995302;28;20176;-65
2022/12/29 08:46:33;;;;;;;1999.90;999.90;;;;;;;13.74;62.52;95128.22;4996206;28;20261;-65
2022/12/29 08:48:58;;;;;;;1999.90;999.90;;;;;;;14.00;61.96;95124.41;4995642;28;20268;-63
2022/12/29 08:51:24;;;;;;;1999.90;999.90;;;;;;;14.15;60.11;95120.09;4995144;28;20322;-62
2022/12/29 08:53:50;;;;;;;1999.90;999.90;;;;;;;14.30;58.70;95121.28;4995345;28;20202;-62
2022/12/29 08:56:15;;;;;;;1999.90;999.90;;;;;;;14.30;58.88;95120.50;4995204;28;20179;-77
2022/12/29 08:58:41;;;;;;;1999.90;999.90;;;;;;;14.36;58.38;95125.03;4978974;28;20188;-67
2022/12/29 09:01:06;;;;;;;1999.90;999.90;;;;;;;14.36;56.58;95130.53;4995969;28;20176;-68
2022/12/29 09:03:32;;;;;;;1999.90;999.90;;;;;;;14.57;56.32;95127.19;4995528;28;20618;-68
2022/12/29 09:05:57;;;;;;;1999.90;999.90;;;;;;;14.73;55.69;95138.13;4995067;28;20207;-71
2022/12/29 09:08:23;;;;;;;1999.90;999.90;;;;;;;14.81;54.85;95133.19;4994852;28;20180;-70
2022/12/29 09:10:49;;;;;;;1999.90;999.90;;;;;;;14.32;56.55;95140.84;5011557;28;20544;-71
2022/12/29 09:13:16;;;;;;;1999.90;999.90;;;;;;;14.22;58.13;95150.13;4994965;28;20172;-69
2022/12/29 09:15:41;;;;;;;1999.90;999.90;;;;;;;14.40;58.63;95136.72;4995502;28;20184;-63
2022/12/29 09:18:08;;;;;;;1999.90;999.90;;;;;;;14.80;57.54;95137.94;4995522;28;20195;-59
2022/12/29 09:20:33;;;;;;;1999.90;999.90;;;;;;;15.04;54.67;95130.94;4994884;28;20176;-59
2022/12/29 09:22:59;;;;;;;1999.90;999.90;;;;;;;14.92;55.38;95141.91;4995115;28;20180;-61
2022/12/29 09:25:24;;;;;;;1999.90;999.90;;;;;;;14.52;55.10;95143.44;4995250;28;20176;-59
2022/12/29 09:27:52;;;;;;;1999.90;999.90;;;;;;;14.42;57.10;95139.78;4994530;28;20219;-61
2022/12/29 09:30:18;;;;;;;1999.90;999.90;;;;;;;13.83;57.28;95150.31;4994250;28;20231;-59
2022/12/29 09:32:44;;;;;;;1999.90;999.90;;;;;;;13.87;58.63;95145.50;4996201;28;20270;-60
2022/12/29 09:35:09;;;;;;;1999.90;999.90;;;;;;;13.69;66.19;95145.16;4998011;28;20243;-63
2022/12/29 09:37:35;;;;;;;1999.90;999.90;;;;;;;13.48;60.63;95153.94;4998715;28;20243;-62
2022/12/29 09:40:00;;;;;;;1999.90;999.90;;;;;;;13.42;59.99;95154.84;4998243;28;20242;-62
2022/12/29 09:43:03;;;;;;;1999.90;999.90;;;;;;;13.56;61.89;95144.31;4997102;28;20663;-62
2022/12/29 09:45:36;;;;;;;1999.90;999.90;;;;;;;13.96;57.95;95145.69;4997976;28;20175;-61
2022/12/29 09:48:07;;;;;;;1999.90;999.90;;;;;;;13.80;58.69;95137.44;4997641;28;20179;-62
2022/12/29 09:50:36;;;;;;;1999.90;999.90;;;;;;;13.86;57.30;95127.50;4998003;28;20178;-77
2022/12/29 09:53:12;;;;;;;1999.90;999.90;;;;;;;13.33;59.66;95131.53;4997399;28;20179;-68
2022/12/29 09:56:00;;;;;;;1999.90;999.90;;;;;;;13.25;62.90;95126.63;4998430;28;20181;-60
2022/12/29 09:58:34;;;;;;;1999.90;999.90;;;;;;;13.04;64.09;95124.38;4997716;28;20211;-60
2022/12/29 10:01:07;;;;;;;1999.90;999.90;;;;;;;12.63;63.73;95121.28;4998164;28;20174;-60
2022/12/29 10:03:54;;;;;;;1999.90;999.90;;;;;;;12.40;64.33;95124.13;4997877;28;20178;-61
2022/12/29 10:06:26;;;;;;;1999.90;999.90;;;;;;;12.28;64.65;95122.00;4997853;28;20241;-60
2022/12/29 10:09:02;;;;;;;1999.90;999.90;;;;;;;12.22;65.77;95124.47;4997360;28;20179;-60
2022/12/29 10:11:33;;;;;;;1999.90;999.90;;;;;;;12.11;66.44;95102.00;5014500;28;20685;-72
2022/12/29 10:14:18;;;;;;;1999.90;999.90;;;;;;;12.07;67.75;95100.50;4997876;28;20175;-70
2022/12/29 10:16:59;;;;;;;1999.90;999.90;;;;;;;12.03;67.84;95105.28;4997884;28;20181;-70
2022/12/29 10:19:44;;;;;;;1999.90;999.90;;;;;;;11.90;68.53;95101.59;4997040;28;20193;-70
2022/12/29 10:22:42;;;;;;;1999.90;999.90;;;;;;;11.86;68.91;95100.88;4997536;28;20174;-70
2022/12/29 10:25:18;;;;;;;1999.90;999.90;;;;;;;11.78;68.34;95104.94;4992651;28;20201;-68
2022/12/29 10:27:46;;;;;;;1999.90;999.90;;;;;;;11.82;69.72;95091.97;4997396;28;20256;-62
2022/12/29 10:30:14;;;;;;;1999.90;999.90;;;;;;;11.84;69.96;95093.09;4997587;28;20184;-57
2022/12/29 10:33:03;;;;;;;1999.90;999.90;;;;;;;11.85;68.59;95100.13;4997383;28;20237;-66
2022/12/29 10:35:38;;;;;;;1999.90;999.90;;;;;;;11.87;69.12;95107.94;4997902;28;20187;-68
2022/12/29 10:38:35;;;;;;;1999.90;999.90;;;;;;;11.85;69.89;95110.28;4997465;28;20193;-70
2022/12/29 10:41:32;;;;;;;1999.90;999.90;;;;;;;11.96;69.63;95110.88;4996921;28;20174;-70
2022/12/29 10:43:59;;;;;;;1999.90;999.90;;;;;;;11.85;69.70;95110.28;4997277;28;20185;-68
2022/12/29 10:46:35;;;;;;;1999.90;999.90;;;;;;;11.80;69.44;95102.56;5013457;28;20199;-57
2022/12/29 10:49:01;;;;;;;1999.90;999.90;;;;;;;11.89;68.41;95095.38;4996996;28;20253;-78
2022/12/29 10:51:38;;;;;;;1999.90;999.90;;;;;;;11.93;68.26;95098.03;4996833;28;20171;-79
2022/12/29 10:54:15;;;;;;;1999.90;999.90;;;;;;;12.13;68.35;95093.38;5001350;28;20173;-76
2022/12/29 10:56:46;;;;;;;1999.90;999.90;;;;;;;12.23;67.64;95092.38;5000288;28;20550;-76
2022/12/29 10:59:24;;;;;;;1999.90;999.90;;;;;;;12.29;67.40;95080.53;5000577;28;20209;-78
2022/12/29 11:02:40;;;;;;;1999.90;999.90;;;;;;;12.40;66.38;95074.81;5000798;28;20178;-76
2022/12/29 11:05:19;;;;;;;1999.90;999.90;;;;;;;12.67;64.56;95061.72;5000342;28;20209;-67
2022/12/29 11:07:48;;;;;;;1999.90;999.90;;;;;;;12.82;66.19;95065.72;5000977;28;20207;-74
2022/12/29 11:10:28;;;;;;;1999.90;999.90;;;;;;;13.06;64.11;95051.47;5000506;28;20186;-77
2022/12/29 11:13:00;;;;;;;1999.90;999.90;;;;;;;13.05;61.15;95054.63;5001218;28;20277;-76
2022/12/29 11:15:25;;;;;;;1999.90;999.90;;;;;;;13.16;58.73;95060.66;5000813;28;20181;-77
2022/12/29 11:17:59;;;;;;;1999.90;999.90;;;;;;;13.35;59.70;95051.56;5000317;28;20183;-75
2022/12/29 11:20:35;;;;;;;1999.90;999.90;;;;;;;13.34;60.61;95059.00;5000212;28;20179;-77
2022/12/29 11:23:03;;;;;;;1999.90;999.90;;;;;;;13.49;58.49;95051.22;5000256;28;20217;-60
2022/12/29 11:25:28;;;;;;;1999.90;999.90;;;;;;;13.62;57.76;95054.78;5000812;28;20182;-60
2022/12/29 11:28:04;;;;;;;1999.90;999.90;;;;;;;13.76;55.70;95046.19;5000226;28;20206;-60
2022/12/29 11:30:32;;;;;;;1999.90;999.90;;;;;;;13.73;56.06;95036.06;5000597;28;20228;-60
2022/12/29 11:32:58;;;;;;;1999.90;999.90;;;;;;;13.73;56.25;95033.34;4999849;28;20811;-60
2022/12/29 11:35:36;;;;;;;1999.90;999.90;;;;;;;13.86;55.76;95039.66;5000781;28;20185;-60